createdAt,value
2022-12-17T00:03:43.576Z,-4.02
2022-12-17T00:09:05.243Z,-4.07
2022-12-17T00:14:25.580Z,-4.14
2022-12-17T00:19:46.111Z,-4.14
2022-12-17T00:25:07.692Z,-4.14
2022-12-17T00:30:28.997Z,-4.19
2022-12-17T00:35:49.248Z,-4.21
2022-12-17T00:41:11.881Z,-4.51
2022-12-17T00:46:32.429Z,-4.46
2022-12-17T00:51:52.909Z,-4.59
2022-12-17T00:57:14.884Z,-5.10
2022-12-17T01:02:35.298Z,-4.90
2022-12-17T01:07:55.868Z,-4.94
2022-12-17T01:13:18.042Z,-4.99
2022-12-17T01:18:39.193Z,-4.86
2022-12-17T01:23:59.695Z,-4.86
2022-12-17T01:29:21.563Z,-4.83
2022-12-17T01:34:41.915Z,-4.86
2022-12-17T01:40:02.282Z,-4.90
2022-12-17T01:45:30.350Z,-5.07
2022-12-17T01:50:55.272Z,-5.11
2022-12-17T01:56:16.148Z,-5.14
2022-12-17T02:01:39.268Z,-5.23
2022-12-17T02:07:08.997Z,-5.12
2022-12-17T02:12:40.652Z,-5.11
2022-12-17T02:18:08.127Z,-5.19
2022-12-17T02:23:49.722Z,-5.19
2022-12-17T02:29:13.943Z,-5.21
2022-12-17T02:34:34.377Z,-5.22
2022-12-17T02:39:53.902Z,-5.31
2022-12-17T02:45:32.765Z,-5.31
2022-12-17T02:50:53.414Z,-5.28
2022-12-17T02:56:13.847Z,-5.28
2022-12-17T03:01:36.211Z,-5.25
2022-12-17T03:06:58.073Z,-5.31
2022-12-17T03:12:19.449Z,-5.35
2022-12-17T03:17:40.930Z,-5.37
2022-12-17T03:23:01.312Z,-5.39
2022-12-17T03:28:23.653Z,-5.44
2022-12-17T03:33:48.125Z,-5.50
2022-12-17T03:39:08.300Z,-5.50
2022-12-17T03:44:28.397Z,-5.70
2022-12-17T03:49:50.066Z,-5.80
2022-12-17T03:55:10.310Z,-5.95
2022-12-17T04:00:31.583Z,-5.93
2022-12-17T04:05:53.201Z,-5.89
2022-12-17T04:11:13.644Z,-5.79
2022-12-17T04:16:34.180Z,-5.72
2022-12-17T04:21:55.610Z,-5.95
2022-12-17T04:27:15.947Z,-6.50
2022-12-17T04:32:36.264Z,-6.40
2022-12-17T04:37:57.813Z,-6.35
2022-12-17T04:43:25.237Z,-6.37
2022-12-17T04:48:45.457Z,-6.36
2022-12-17T04:54:07.113Z,-6.32
2022-12-17T04:59:27.281Z,-6.27
2022-12-17T05:04:47.647Z,-6.26
2022-12-17T05:10:09.089Z,-6.16
2022-12-17T05:15:29.381Z,-6.11
2022-12-17T05:20:49.634Z,-6.15
2022-12-17T05:26:21.530Z,-6.12
2022-12-17T05:31:42.415Z,-6.07
2022-12-17T05:37:03.215Z,-6.12
2022-12-17T05:42:33.448Z,-6.20
2022-12-17T05:47:53.987Z,-6.33
2022-12-17T05:53:20.293Z,-6.42
2022-12-17T05:58:42.076Z,-6.46
2022-12-17T06:04:02.384Z,-6.61
2022-12-17T06:09:23.169Z,-6.54
2022-12-17T06:14:44.581Z,-6.55
2022-12-17T06:20:04.823Z,-6.49
2022-12-17T06:25:25.529Z,-6.52
2022-12-17T06:30:47.582Z,-6.49
2022-12-17T06:36:07.907Z,-6.51
2022-12-17T06:41:28.359Z,-6.50
2022-12-17T06:46:49.905Z,-6.55
2022-12-17T06:52:10.051Z,-6.53
2022-12-17T06:57:30.446Z,-6.65
2022-12-17T07:02:52.013Z,-6.70
2022-12-17T07:08:15.747Z,-6.69
2022-12-17T07:13:36.197Z,-6.65
2022-12-17T07:18:58.770Z,-6.61
2022-12-17T07:24:19.273Z,-7.02
2022-12-17T07:29:39.444Z,-7.40
2022-12-17T07:35:00.973Z,-7.02
2022-12-17T07:40:21.297Z,-6.81
2022-12-17T07:45:41.650Z,-5.68
2022-12-17T07:51:07.265Z,-5.27
2022-12-17T07:56:27.621Z,-5.29
2022-12-17T08:01:48.134Z,-5.31
2022-12-17T08:07:14.004Z,-5.19
2022-12-17T08:12:34.921Z,-5.53
2022-12-17T08:17:55.295Z,-5.28
2022-12-17T08:23:23.362Z,-5.43
2022-12-17T08:28:51.336Z,-5.61
2022-12-17T08:34:14.935Z,-5.65
2022-12-17T08:39:36.735Z,-6.06
2022-12-17T08:44:57.170Z,-5.65
2022-12-17T08:50:17.610Z,-5.64
2022-12-17T08:55:39.400Z,-5.29
2022-12-17T09:01:00.555Z,-5.33
2022-12-17T09:06:19.958Z,-4.92
2022-12-17T09:11:41.685Z,-5.07
2022-12-17T09:17:02.197Z,-5.00
2022-12-17T09:22:22.572Z,-4.79
2022-12-17T09:27:44.462Z,-4.47
2022-12-17T09:33:04.744Z,-4.55
2022-12-17T09:38:25.247Z,-4.53
2022-12-17T09:43:55.983Z,-4.44
2022-12-17T09:49:20.607Z,-4.13
2022-12-17T09:54:49.051Z,-3.72
2022-12-17T10:00:10.547Z,-3.39
2022-12-17T10:05:44.762Z,-2.41
2022-12-17T10:11:05.294Z,-1.88
2022-12-17T10:16:42.712Z,-1.41
2022-12-17T10:22:03.237Z,-1.46
2022-12-17T10:27:28.319Z,-0.71
2022-12-17T10:32:50.459Z,-0.11
2022-12-17T10:38:11.077Z,0.22
2022-12-17T10:43:41.794Z,0.89
2022-12-17T10:49:08.288Z,1.19
2022-12-17T10:54:47.039Z,2.04
2022-12-17T11:00:09.859Z,2.44
2022-12-17T11:05:44.069Z,3.72
2022-12-17T11:11:05.847Z,4.01
2022-12-17T11:16:39.730Z,4.39
2022-12-17T11:22:03.551Z,4.78
2022-12-17T11:27:27.351Z,4.71
2022-12-17T11:33:05.190Z,4.80
2022-12-17T11:38:40.700Z,5.02
2022-12-17T11:44:09.245Z,4.85
2022-12-17T11:49:37.660Z,4.98
2022-12-17T11:55:07.306Z,3.67
2022-12-17T12:00:35.053Z,3.92
2022-12-17T12:06:04.598Z,4.60
2022-12-17T12:11:38.836Z,4.61
2022-12-17T12:17:07.811Z,4.58
2022-12-17T12:22:37.623Z,4.57
2022-12-17T12:28:15.847Z,4.32
2022-12-17T12:33:46.554Z,4.14
2022-12-17T12:39:12.074Z,3.18
2022-12-17T12:44:40.576Z,3.00
2022-12-17T12:50:10.739Z,3.75
2022-12-17T12:55:31.814Z,4.02
2022-12-17T13:00:57.318Z,3.93
2022-12-17T13:06:00.241Z,3.07
2022-12-17T13:11:13.100Z,2.99
2022-12-17T13:16:27.246Z,3.19
2022-12-17T13:21:31.699Z,3.22
2022-12-17T13:26:45.266Z,3.44
2022-12-17T13:32:03.619Z,3.77
2022-12-17T13:37:11.857Z,3.86
2022-12-17T13:42:27.991Z,3.74
2022-12-17T13:47:34.522Z,3.56
2022-12-17T13:52:37.691Z,3.38
2022-12-17T13:57:46.695Z,3.13
2022-12-17T14:02:51.790Z,3.00
2022-12-17T14:07:59.535Z,2.73
2022-12-17T14:13:07.335Z,2.61
2022-12-17T14:18:15.824Z,2.43
2022-12-17T14:23:27.165Z,2.30
2022-12-17T14:28:34.506Z,2.18
2022-12-17T14:33:39.582Z,1.97
2022-12-17T14:38:54.864Z,1.01
2022-12-17T14:44:02.245Z,0.68
2022-12-17T14:49:18.564Z,-0.04
2022-12-17T14:54:30.803Z,-0.66
2022-12-17T14:59:35.398Z,-0.94
2022-12-17T15:04:40.422Z,-1.06
2022-12-17T15:09:44.157Z,-1.25
2022-12-17T15:14:47.681Z,-1.36
2022-12-17T15:19:56.079Z,-1.48
2022-12-17T15:24:59.235Z,-1.63
2022-12-17T15:30:02.064Z,-1.73
2022-12-17T15:35:07.293Z,-1.83
2022-12-17T15:40:12.111Z,-1.97
2022-12-17T15:45:14.967Z,-2.14
2022-12-17T15:50:19.234Z,-2.27
2022-12-17T15:55:22.157Z,-2.34
2022-12-17T16:00:25.442Z,-2.44
2022-12-17T16:05:30.846Z,-2.60
2022-12-17T16:10:33.745Z,-2.73
2022-12-17T16:15:36.678Z,-2.84
2022-12-17T16:20:41.137Z,-2.87
2022-12-17T16:25:44.005Z,-2.77
2022-12-17T16:30:46.977Z,-2.73
2022-12-17T16:35:53.179Z,-2.80
2022-12-17T16:40:57.494Z,-2.98
2022-12-17T16:46:00.483Z,-3.06
2022-12-17T16:51:16.327Z,-3.09
2022-12-17T16:56:20.907Z,-3.13
2022-12-17T17:01:26.471Z,-3.24
2022-12-17T17:06:33.813Z,-3.40
2022-12-17T17:11:37.134Z,-3.52
2022-12-17T17:16:40.047Z,-3.62
2022-12-17T17:21:50.665Z,-3.79
2022-12-17T17:26:55.913Z,-3.87
2022-12-17T17:32:10.311Z,-3.89
2022-12-17T17:37:15.706Z,-3.89
2022-12-17T17:42:18.535Z,-3.98
2022-12-17T17:47:21.348Z,-4.02
2022-12-17T17:52:25.534Z,-4.08
2022-12-17T17:57:28.610Z,-4.01
2022-12-17T18:02:31.585Z,-4.08
2022-12-17T18:07:35.972Z,-4.08
2022-12-17T18:12:56.731Z,-4.09
2022-12-17T18:17:59.613Z,-4.19
2022-12-17T18:23:04.239Z,-4.20
2022-12-17T18:28:07.160Z,-4.30
2022-12-17T18:33:09.992Z,-4.40
2022-12-17T18:38:14.538Z,-4.45
2022-12-17T18:43:26.411Z,-4.49
2022-12-17T18:48:29.200Z,-4.51
2022-12-17T18:53:33.580Z,-4.52
2022-12-17T18:58:36.858Z,-4.51
2022-12-17T19:03:40.139Z,-4.59
2022-12-17T19:08:44.617Z,-4.67
2022-12-17T19:13:51.579Z,-4.72
2022-12-17T19:18:56.471Z,-4.75
2022-12-17T19:24:04.110Z,-4.89
2022-12-17T19:29:08.499Z,-4.98
2022-12-17T19:34:13.560Z,-5.00
2022-12-17T19:39:20.757Z,-4.98
2022-12-17T19:44:23.577Z,-5.04
2022-12-17T19:49:26.451Z,-5.06
2022-12-17T19:54:30.857Z,-5.11
2022-12-17T19:59:33.782Z,-5.06
2022-12-17T20:04:36.785Z,-5.05
2022-12-17T20:09:44.121Z,-5.10
2022-12-17T20:14:46.930Z,-5.16
2022-12-17T20:19:53.326Z,-5.29
2022-12-17T20:25:01.403Z,-5.27
2022-12-17T20:30:05.122Z,-5.36
2022-12-17T20:35:09.122Z,-5.41
2022-12-17T20:40:13.497Z,-5.43
2022-12-17T20:45:16.383Z,-5.43
2022-12-17T20:50:19.326Z,-5.44
2022-12-17T20:55:29.378Z,-5.49
2022-12-17T21:00:34.415Z,-5.54
2022-12-17T21:05:37.227Z,-5.54
2022-12-17T21:10:41.407Z,-5.58
2022-12-17T21:15:50.093Z,-5.59
2022-12-17T21:20:57.621Z,-5.72
2022-12-17T21:26:04.174Z,-5.70
2022-12-17T21:31:17.474Z,-5.79
2022-12-17T21:36:23.278Z,-5.77
2022-12-17T21:41:29.622Z,-5.85
2022-12-17T21:46:33.641Z,-5.84
2022-12-17T21:51:36.633Z,-5.91
2022-12-17T21:56:40.881Z,-5.95
2022-12-17T22:01:43.874Z,-6.24
2022-12-17T22:06:52.302Z,-6.23
2022-12-17T22:12:28.650Z,-6.17
2022-12-17T22:17:31.514Z,-6.05
2022-12-17T22:22:35.163Z,-6.22
2022-12-17T22:27:40.088Z,-6.25
2022-12-17T22:33:07.282Z,-6.22
2022-12-17T22:42:17.242Z,-6.33
2022-12-17T22:44:41.674Z,-6.26
2022-12-17T22:49:14.153Z,-6.21
2022-12-17T22:54:17.086Z,-6.22
2022-12-17T22:59:21.586Z,-6.26
2022-12-17T23:04:24.535Z,-6.40
2022-12-17T23:09:27.455Z,-6.47
2022-12-17T23:14:31.745Z,-6.40
2022-12-17T23:19:34.596Z,-6.40
2022-12-17T23:24:37.506Z,-6.46
2022-12-17T23:29:41.776Z,-6.40
2022-12-17T23:34:44.701Z,-6.39
2022-12-17T23:39:47.622Z,-6.46
2022-12-17T23:44:52.252Z,-6.62
2022-12-17T23:49:55.138Z,-6.66
2022-12-17T23:54:59.180Z,-6.70
